Time;durP1;ratioP1;P1;durP2;ratioP2;P2;SDS_P1;SDS_P2;PMS_P1;PMS_P2;Temp;Humidity;BMP_temperature;BMP_pressure;BME280_temperature;BME280_humidity;BME280_pressure;Samples;Min_cycle;Max_cycle;Signal;HPM_P1;HPM_P2
2023/03/14 00:01:24;;;;;;;;;;;;;;;13.77;59.66;95856.00;4201783;28;5698;-77
2023/03/14 00:03:29;;;;;;;;;;;;;;;13.76;59.71;95861.56;4220440;28;5613;-76
2023/03/14 00:05:35;;;;;;;;;;;;;;;13.76;59.63;95866.88;4211733;28;5612;-76
2023/03/14 00:07:39;;;;;;;;;;;;;;;13.74;59.79;95877.72;4220057;28;5726;-74
2023/03/14 00:09:42;;;;;;;;;;;;;;;13.74;59.52;95874.25;4202772;28;5775;-76
2023/03/14 00:11:46;;;;;;;;;;;;;;;13.72;59.49;95882.47;4220131;28;7071;-76
2023/03/14 00:13:49;;;;;;;;;;;;;;;13.66;59.32;95880.75;4218862;28;5621;-76
2023/03/14 00:15:52;;;;;;;;;;;;;;;13.62;59.66;95876.94;4219939;28;5688;-75
2023/03/14 00:17:55;;;;;;;;;;;;;;;13.62;59.31;95883.06;4220187;28;5624;-76
2023/03/14 00:20:04;;;;;;;;;;;;;;;13.65;59.42;95879.13;4220654;28;5617;-75
2023/03/14 00:22:08;;;;;;;;;;;;;;;13.64;59.13;95901.41;4219991;28;5612;-76
2023/03/14 00:24:11;;;;;;;;;;;;;;;13.62;59.16;95914.13;4219866;28;5706;-76
2023/03/14 00:26:16;;;;;;;;;;;;;;;13.61;58.97;95892.06;4219748;28;5810;-76
2023/03/14 00:28:18;;;;;;;;;;;;;;;13.56;59.21;95888.50;4219643;28;5609;-76
2023/03/14 00:30:21;;;;;;;;;;;;;;;13.56;59.09;95878.69;4219832;28;5798;-76
2023/03/14 00:32:24;;;;;;;;;;;;;;;13.58;59.35;95871.28;4219822;28;5616;-76
2023/03/14 00:34:29;;;;;;;;;;;;;;;13.59;59.44;95882.69;4219966;28;5600;-76
2023/03/14 00:36:32;;;;;;;;;;;;;;;13.62;59.23;95898.19;4219888;28;5777;-76
2023/03/14 00:38:37;;;;;;;;;;;;;;;13.58;59.13;95900.50;4218301;28;5737;-76
2023/03/14 00:40:40;;;;;;;;;;;;;;;13.50;58.97;95916.00;4219843;28;5622;-76
2023/03/14 00:42:43;;;;;;;;;;;;;;;13.50;59.44;95932.72;4219469;28;5621;-76
2023/03/14 00:44:46;;;;;;;;;;;;;;;13.47;59.12;95927.06;4219453;28;5624;-76
2023/03/14 00:46:49;;;;;;;;;;;;;;;13.43;59.35;95923.25;4219144;28;5625;-76
2023/03/14 00:48:52;;;;;;;;;;;;;;;13.44;59.24;95935.50;4219627;28;5132;-76
2023/03/14 00:50:55;;;;;;;;;;;;;;;13.44;59.26;95938.94;4219478;28;5711;-76
2023/03/14 00:52:58;;;;;;;;;;;;;;;13.47;59.61;95945.63;4219512;28;5692;-76
2023/03/14 00:55:02;;;;;;;;;;;;;;;13.46;59.61;95942.19;4219547;28;5625;-75
2023/03/14 00:57:05;;;;;;;;;;;;;;;13.47;59.37;95946.44;4200312;28;5679;-75
2023/03/14 00:59:08;;;;;;;;;;;;;;;13.51;59.63;95949.47;4214986;28;5627;-75
2023/03/14 01:01:14;;;;;;;;;;;;;;;13.52;59.48;95943.13;4217240;28;5791;-75
2023/03/14 01:03:17;;;;;;;;;;;;;;;13.58;59.62;95950.13;4218539;28;5624;-75
2023/03/14 01:05:22;;;;;;;;;;;;;;;13.62;59.60;95940.69;4218431;28;5617;-74
2023/03/14 01:07:25;;;;;;;;;;;;;;;13.61;59.59;95939.88;4219169;28;5629;-75
2023/03/14 01:09:28;;;;;;;;;;;;;;;13.64;59.37;95938.59;4219044;28;5621;-75
2023/03/14 01:11:34;;;;;;;;;;;;;;;13.64;59.23;95918.16;4214639;28;5692;-75
2023/03/14 01:13:37;;;;;;;;;;;;;;;13.69;59.43;95920.91;4204941;28;5778;-76
2023/03/14 01:15:40;;;;;;;;;;;;;;;13.72;59.38;95929.47;4214249;28;5724;-75
2023/03/14 01:17:44;;;;;;;;;;;;;;;13.70;59.30;95916.41;4212874;28;5612;-76
2023/03/14 01:19:47;;;;;;;;;;;;;;;13.74;59.33;95917.56;4205971;28;5722;-76
2023/03/14 01:21:50;;;;;;;;;;;;;;;13.74;59.33;95911.44;4218347;28;5629;-76
2023/03/14 01:23:54;;;;;;;;;;;;;;;13.74;59.34;95898.16;4204511;28;5715;-76
2023/03/14 01:25:57;;;;;;;;;;;;;;;13.73;59.13;95876.13;4196851;28;5805;-76
2023/03/14 01:28:01;;;;;;;;;;;;;;;13.68;59.14;95889.28;4206182;28;6025;-76
2023/03/14 01:30:05;;;;;;;;;;;;;;;13.66;59.07;95886.84;4215604;28;7153;-77
2023/03/14 01:32:07;;;;;;;;;;;;;;;13.70;59.23;95884.53;4215341;28;5620;-76
2023/03/14 01:34:10;;;;;;;;;;;;;;;13.73;59.05;95876.13;4218865;28;5692;-76
2023/03/14 01:36:13;;;;;;;;;;;;;;;13.75;59.18;95870.56;4211382;28;5628;-76
2023/03/14 01:38:16;;;;;;;;;;;;;;;13.76;58.98;95867.66;4217890;28;5644;-76
2023/03/14 01:40:19;;;;;;;;;;;;;;;13.78;59.14;95860.25;4212498;28;5601;-75
2023/03/14 01:42:22;;;;;;;;;;;;;;;13.78;58.85;95854.16;4217710;28;5692;-76
2023/03/14 01:44:26;;;;;;;;;;;;;;;13.76;59.08;95838.44;4211395;28;5609;-76
2023/03/14 01:46:34;;;;;;;;;;;;;;;13.73;58.83;95841.59;4216121;28;5632;-76
2023/03/14 01:48:39;;;;;;;;;;;;;;;13.68;58.79;95836.16;4210057;28;5641;-75
2023/03/14 01:50:42;;;;;;;;;;;;;;;13.68;58.90;95833.50;4215012;28;5804;-76
2023/03/14 01:52:48;;;;;;;;;;;;;;;13.66;58.99;95830.28;4217409;28;5613;-76
2023/03/14 01:54:54;;;;;;;;;;;;;;;13.70;58.77;95831.41;4218375;28;5838;-76
2023/03/14 01:57:03;;;;;;;;;;;;;;;13.71;58.60;95833.06;4213503;28;5139;-76
2023/03/14 01:59:08;;;;;;;;;;;;;;;13.74;58.63;95831.75;4209255;28;5772;-76
2023/03/14 02:01:14;;;;;;;;;;;;;;;13.76;58.60;95821.72;4208030;28;5725;-77
2023/03/14 02:03:21;;;;;;;;;;;;;;;13.77;58.83;95821.47;4211819;28;5605;-76
2023/03/14 02:05:28;;;;;;;;;;;;;;;13.77;58.43;95812.69;4204717;28;5616;-74
2023/03/14 02:07:36;;;;;;;;;;;;;;;13.75;58.32;95810.28;4211751;28;5608;-75
2023/03/14 02:09:40;;;;;;;;;;;;;;;13.71;58.40;95811.00;4194065;28;5718;-76
2023/03/14 02:11:44;;;;;;;;;;;;;;;13.67;58.34;95813.31;4217909;28;5692;-76
2023/03/14 02:13:47;;;;;;;;;;;;;;;13.65;58.49;95791.50;4212046;28;5613;-76
2023/03/14 02:15:51;;;;;;;;;;;;;;;13.61;58.51;95777.88;4211713;28;5620;-76
2023/03/14 02:17:55;;;;;;;;;;;;;;;13.58;58.53;95774.88;4217228;28;5624;-76
2023/03/14 02:20:08;;;;;;;;;;;;;;;13.57;58.38;95760.78;4208996;28;5620;-76
2023/03/14 02:22:13;;;;;;;;;;;;;;;13.61;58.15;95750.53;4205365;28;5621;-77
2023/03/14 02:24:26;;;;;;;;;;;;;;;13.66;57.95;95739.97;4210728;28;5635;-77
2023/03/14 02:26:34;;;;;;;;;;;;;;;13.71;57.78;95739.28;4211978;28;5631;-76
2023/03/14 02:28:39;;;;;;;;;;;;;;;13.71;57.71;95721.50;4202814;28;6186;-75
2023/03/14 02:30:42;;;;;;;;;;;;;;;13.75;57.87;95719.97;4212089;28;5613;-76
2023/03/14 02:32:48;;;;;;;;;;;;;;;13.74;57.71;95721.00;4218151;28;5617;-76
2023/03/14 02:34:55;;;;;;;;;;;;;;;13.75;57.66;95732.44;4218308;28;5835;-77
2023/03/14 02:36:58;;;;;;;;;;;;;;;13.74;57.70;95731.63;4218432;28;5630;-76
2023/03/14 02:39:08;;;;;;;;;;;;;;;13.74;57.67;95742.25;4218486;28;5085;-77
2023/03/14 02:41:11;;;;;;;;;;;;;;;13.73;57.68;95739.84;4218465;28;5609;-76
2023/03/14 02:43:14;;;;;;;;;;;;;;;13.72;58.09;95754.97;4218506;28;5608;-75
2023/03/14 02:45:40;;;;;;;;;;;;;;;13.69;57.82;95752.78;4218116;28;5620;-75
2023/03/14 02:47:48;;;;;;;;;;;;;;;13.73;58.14;95750.47;4211031;28;5621;-75
2023/03/14 02:49:54;;;;;;;;;;;;;;;13.75;58.09;95743.06;4218377;28;5722;-75
2023/03/14 02:51:57;;;;;;;;;;;;;;;13.77;58.15;95748.94;4218016;28;5715;-75
2023/03/14 02:54:00;;;;;;;;;;;;;;;13.75;58.19;95749.19;4218532;28;5628;-75
2023/03/14 02:56:03;;;;;;;;;;;;;;;13.75;58.26;95753.69;4218331;28;5628;-76
2023/03/14 02:58:06;;;;;;;;;;;;;;;13.75;58.27;95754.50;4218233;28;5613;-75
2023/03/14 03:00:10;;;;;;;;;;;;;;;13.76;58.08;95756.09;4216778;28;5621;-76
2023/03/14 03:02:14;;;;;;;;;;;;;;;13.75;58.27;95749.19;4218987;28;5852;-77
2023/03/14 03:04:17;;;;;;;;;;;;;;;13.72;58.40;95743.56;4214740;28;5655;-76
2023/03/14 03:06:21;;;;;;;;;;;;;;;13.74;58.44;95736.94;4219979;28;5724;-75
2023/03/14 03:08:26;;;;;;;;;;;;;;;13.76;58.46;95718.91;4221434;28;5661;-76
2023/03/14 03:10:29;;;;;;;;;;;;;;;13.75;58.33;95722.63;4219775;28;5640;-77
2023/03/14 03:12:32;;;;;;;;;;;;;;;13.78;58.21;95730.09;4209472;28;5617;-76
2023/03/14 03:14:35;;;;;;;;;;;;;;;13.76;58.15;95723.44;4215515;28;5628;-76
2023/03/14 03:16:37;;;;;;;;;;;;;;;13.75;58.24;95712.00;4210642;28;5625;-75
2023/03/14 03:18:42;;;;;;;;;;;;;;;13.77;58.40;95709.91;4220282;28;5637;-76
2023/03/14 03:20:45;;;;;;;;;;;;;;;13.77;58.18;95714.41;4217885;28;5691;-75
2023/03/14 03:22:49;;;;;;;;;;;;;;;13.74;58.55;95710.38;4214549;28;5604;-76
2023/03/14 03:24:52;;;;;;;;;;;;;;;13.76;58.20;95708.28;4215211;28;5684;-75
2023/03/14 03:26:56;;;;;;;;;;;;;;;13.74;58.44;95691.78;4221018;28;5617;-75
2023/03/14 03:28:58;;;;;;;;;;;;;;;13.75;58.69;95704.03;4216180;28;5077;-75
2023/03/14 03:31:07;;;;;;;;;;;;;;;13.73;58.53;95703.47;4207351;28;5631;-74
2023/03/14 03:33:11;;;;;;;;;;;;;;;13.74;58.46;95696.31;4217286;28;5613;-75
2023/03/14 03:35:15;;;;;;;;;;;;;;;13.73;58.76;95686.72;4219856;28;5625;-76
2023/03/14 03:37:18;;;;;;;;;;;;;;;13.72;58.69;95693.09;4217220;28;5728;-77
2023/03/14 03:39:21;;;;;;;;;;;;;;;13.72;58.79;95682.47;4213865;28;5703;-76
2023/03/14 03:41:24;;;;;;;;;;;;;;;13.69;58.61;95671.25;4215956;28;5649;-77
2023/03/14 03:43:27;;;;;;;;;;;;;;;13.63;58.94;95663.44;4190383;28;5800;-76
2023/03/14 03:45:30;;;;;;;;;;;;;;;13.63;58.70;95658.13;4208391;28;5731;-77
2023/03/14 03:47:33;;;;;;;;;;;;;;;13.60;58.91;95670.06;4203744;28;5627;-76
2023/03/14 03:49:35;;;;;;;;;;;;;;;13.59;58.92;95664.97;4212070;28;5739;-77
2023/03/14 03:51:40;;;;;;;;;;;;;;;13.58;59.13;95664.16;4220124;28;5633;-77
2023/03/14 03:53:44;;;;;;;;;;;;;;;13.60;59.06;95653.31;4220581;28;5609;-76
2023/03/14 03:55:46;;;;;;;;;;;;;;;13.59;59.18;95639.22;4220375;28;5624;-76
2023/03/14 03:57:49;;;;;;;;;;;;;;;13.57;59.16;95636.00;4215243;28;5616;-77
2023/03/14 03:59:52;;;;;;;;;;;;;;;13.57;59.35;95636.00;4194930;28;5696;-76
2023/03/14 04:01:55;;;;;;;;;;;;;;;13.57;59.21;95640.50;4209367;28;5699;-77
2023/03/14 04:03:58;;;;;;;;;;;;;;;13.59;59.22;95630.44;4205180;28;5636;-76
2023/03/14 04:06:03;;;;;;;;;;;;;;;13.59;58.93;95623.31;4215919;28;5621;-75
2023/03/14 04:08:08;;;;;;;;;;;;;;;13.61;59.25;95626.53;4201384;28;5687;-77
2023/03/14 04:10:11;;;;;;;;;;;;;;;13.63;59.03;95624.41;4213930;28;5624;-76
2023/03/14 04:12:14;;;;;;;;;;;;;;;13.63;59.27;95618.31;4214087;28;5790;-76
2023/03/14 04:14:17;;;;;;;;;;;;;;;13.62;59.35;95603.41;4215179;28;5633;-76
2023/03/14 04:16:22;;;;;;;;;;;;;;;13.62;59.06;95595.44;4219223;28;5708;-76
2023/03/14 04:18:25;;;;;;;;;;;;;;;13.66;59.30;95591.25;4216838;28;5668;-76
2023/03/14 04:20:28;;;;;;;;;;;;;;;13.65;58.99;95579.84;4217054;28;5635;-76
2023/03/14 04:22:31;;;;;;;;;;;;;;;13.63;59.31;95589.09;4210986;28;5844;-76
2023/03/14 04:24:35;;;;;;;;;;;;;;;13.63;59.05;95597.06;4208322;28;7200;-75
2023/03/14 04:26:38;;;;;;;;;;;;;;;13.62;59.02;95587.50;4212747;28;5834;-76
2023/03/14 04:28:41;;;;;;;;;;;;;;;13.63;58.97;95592.56;4214241;28;5597;-76
2023/03/14 04:30:44;;;;;;;;;;;;;;;13.62;58.98;95590.16;4216498;28;5628;-77
2023/03/14 04:32:47;;;;;;;;;;;;;;;13.62;59.07;95584.84;4219468;28;5624;-76
2023/03/14 04:34:50;;;;;;;;;;;;;;;13.62;59.15;95582.19;4219505;28;5624;-76
2023/03/14 04:36:52;;;;;;;;;;;;;;;13.61;59.23;95583.22;4219609;28;5613;-77
2023/03/14 04:38:55;;;;;;;;;;;;;;;13.60;58.96;95576.31;4219606;28;5703;-76
2023/03/14 04:41:00;;;;;;;;;;;;;;;13.59;59.24;95559.56;4219429;28;5621;-75
2023/03/14 04:43:03;;;;;;;;;;;;;;;13.58;59.04;95555.28;4219863;28;5749;-76
2023/03/14 04:45:07;;;;;;;;;;;;;;;13.54;58.78;95550.72;4201357;28;5895;-75
2023/03/14 04:47:10;;;;;;;;;;;;;;;13.44;59.25;95546.03;4219185;28;5732;-75
2023/03/14 04:49:13;;;;;;;;;;;;;;;13.39;58.95;95545.97;4219766;28;5620;-76
2023/03/14 04:51:16;;;;;;;;;;;;;;;13.33;59.23;95523.84;4220204;28;5600;-76
2023/03/14 04:53:19;;;;;;;;;;;;;;;13.30;58.98;95519.00;4219433;28;5628;-76
2023/03/14 04:55:22;;;;;;;;;;;;;;;13.28;59.24;95510.50;4219490;28;5620;-76
2023/03/14 04:57:27;;;;;;;;;;;;;;;13.20;59.20;95508.22;4219171;28;5629;-76
2023/03/14 04:59:30;;;;;;;;;;;;;;;13.16;59.33;95507.09;4219459;28;5625;-76
2023/03/14 05:01:33;;;;;;;;;;;;;;;13.19;59.05;95511.13;4212559;28;5609;-76
2023/03/14 05:03:37;;;;;;;;;;;;;;;13.20;59.08;95502.13;4218419;28;5620;-75
2023/03/14 05:05:40;;;;;;;;;;;;;;;13.18;58.81;95497.03;4203333;28;5734;-75
2023/03/14 05:07:43;;;;;;;;;;;;;;;13.12;58.82;95487.34;4203745;28;5631;-76
2023/03/14 05:09:46;;;;;;;;;;;;;;;13.11;58.84;95485.75;4216918;28;5229;-76
2023/03/14 05:11:49;;;;;;;;;;;;;;;13.12;58.88;95485.50;4218929;28;5606;-76
2023/03/14 05:13:53;;;;;;;;;;;;;;;13.11;58.81;95483.09;4217658;28;5621;-75
2023/03/14 05:16:04;;;;;;;;;;;;;;;13.09;58.80;95487.84;4216746;28;5711;-76
2023/03/14 05:18:07;;;;;;;;;;;;;;;13.09;58.81;95501.13;4212874;28;5736;-75
2023/03/14 05:20:12;;;;;;;;;;;;;;;13.02;58.79;95489.84;4217211;28;5616;-76
2023/03/14 05:22:15;;;;;;;;;;;;;;;12.98;58.71;95499.34;4213555;28;5683;-76
2023/03/14 05:24:18;;;;;;;;;;;;;;;12.96;59.04;95498.78;4208111;28;5625;-75
2023/03/14 05:26:21;;;;;;;;;;;;;;;12.97;58.78;95495.06;4218357;28;5712;-76
2023/03/14 05:28:24;;;;;;;;;;;;;;;12.96;58.63;95494.25;4206056;28;5758;-76
2023/03/14 05:30:30;;;;;;;;;;;;;;;12.97;58.91;95487.91;4208169;28;5751;-75
2023/03/14 05:32:33;;;;;;;;;;;;;;;13.00;58.62;95481.31;4212954;28;5635;-76
2023/03/14 05:34:36;;;;;;;;;;;;;;;13.04;58.38;95477.16;4205343;28;5636;-75
2023/03/14 05:36:39;;;;;;;;;;;;;;;13.07;58.60;95476.66;4217596;28;5617;-76
2023/03/14 05:38:42;;;;;;;;;;;;;;;13.04;58.58;95477.16;4204328;28;5627;-76
2023/03/14 05:40:46;;;;;;;;;;;;;;;13.00;58.33;95479.47;4213313;28;5615;-76
2023/03/14 05:42:49;;;;;;;;;;;;;;;12.96;58.33;95480.19;4218992;28;5637;-76
2023/03/14 05:44:51;;;;;;;;;;;;;;;12.95;58.37;95490.00;4220911;28;5772;-77
2023/03/14 05:46:56;;;;;;;;;;;;;;;12.93;58.62;95481.50;4209819;28;5616;-76
2023/03/14 05:48:59;;;;;;;;;;;;;;;12.93;58.62;95496.59;4217842;28;5617;-77
2023/03/14 05:51:02;;;;;;;;;;;;;;;12.89;58.67;95495.44;4220446;28;5609;-75
2023/03/14 05:53:05;;;;;;;;;;;;;;;12.87;58.66;95498.34;4211058;28;5687;-75
2023/03/14 05:55:08;;;;;;;;;;;;;;;12.86;58.67;95507.34;4218459;28;5888;-75
2023/03/14 05:57:11;;;;;;;;;;;;;;;12.96;58.59;95514.69;4202395;28;5659;-76
2023/03/14 05:59:14;;;;;;;;;;;;;;;12.99;58.66;95516.84;4215584;28;5608;-76
2023/03/14 06:01:17;;;;;;;;;;;;;;;12.99;58.28;95519.50;4208287;28;5640;-75
2023/03/14 06:03:21;;;;;;;;;;;;;;;12.97;58.33;95529.56;4209578;28;5708;-74
2023/03/14 06:05:24;;;;;;;;;;;;;;;12.94;58.30;95535.34;4206657;28;5613;-74
2023/03/14 06:07:27;;;;;;;;;;;;;;;12.94;58.45;95535.34;4212349;28;5077;-74
2023/03/14 06:09:30;;;;;;;;;;;;;;;12.95;58.56;95536.94;4209457;28;7680;-76
2023/03/14 06:11:33;;;;;;;;;;;;;;;12.97;58.62;95532.22;4208869;28;5734;-77
2023/03/14 06:13:36;;;;;;;;;;;;;;;12.98;58.37;95531.97;4208650;28;5788;-76
2023/03/14 06:15:39;;;;;;;;;;;;;;;12.97;58.58;95540.16;4209738;28;5838;-76
2023/03/14 06:17:42;;;;;;;;;;;;;;;13.02;58.60;95542.91;4214243;28;5252;-76
2023/03/14 06:19:46;;;;;;;;;;;;;;;13.00;58.86;95553.75;4208525;28;7663;-77
2023/03/14 06:21:49;;;;;;;;;;;;;;;13.00;58.61;95545.00;4216487;28;5628;-77
2023/03/14 06:23:52;;;;;;;;;;;;;;;12.99;58.53;95559.28;4214714;28;5669;-77
2023/03/14 06:25:55;;;;;;;;;;;;;;;12.98;58.58;95560.34;4216761;28;5711;-77
2023/03/14 06:27:57;;;;;;;;;;;;;;;12.95;58.60;95566.13;4214492;28;5679;-76
2023/03/14 06:30:00;;;;;;;;;;;;;;;12.96;58.45;95565.09;4217867;28;5621;-77
2023/03/14 06:32:06;;;;;;;;;;;;;;;12.95;58.50;95576.75;4213210;28;5651;-76
2023/03/14 06:34:09;;;;;;;;;;;;;;;12.89;58.75;95570.53;4204566;28;5632;-76
2023/03/14 06:36:13;;;;;;;;;;;;;;;12.85;58.59;95571.25;4209295;28;5636;-77
2023/03/14 06:38:16;;;;;;;;;;;;;;;12.81;58.70;95569.06;4214932;28;6633;-77
2023/03/14 06:40:19;;;;;;;;;;;;;;;12.79;58.92;95575.63;4213783;28;5605;-77
2023/03/14 06:42:22;;;;;;;;;;;;;;;12.78;58.87;95574.03;4218017;28;5612;-77
2023/03/14 06:44:25;;;;;;;;;;;;;;;12.75;59.21;95580.63;4210460;28;5635;-76
2023/03/14 06:46:28;;;;;;;;;;;;;;;12.75;59.10;95577.97;4210219;28;5754;-77
2023/03/14 06:48:31;;;;;;;;;;;;;;;12.80;59.07;95575.44;4209295;28;6550;-66
2023/03/14 06:50:35;;;;;;;;;;;;;;;12.85;59.24;95584.50;4207966;28;6320;-70
2023/03/14 06:52:41;;;;;;;;;;;;;;;12.84;58.78;95583.69;4206492;28;5081;-69
2023/03/14 06:54:43;;;;;;;;;;;;;;;12.85;59.04;95576.56;4213302;28;5621;-69
2023/03/14 06:56:46;;;;;;;;;;;;;;;12.85;58.85;95579.19;4220328;28;5688;-69
2023/03/14 06:58:49;;;;;;;;;;;;;;;12.82;59.07;95591.91;4220120;28;5624;-69
2023/03/14 07:00:54;;;;;;;;;;;;;;;12.85;59.16;95587.16;4220252;28;5640;-69
2023/03/14 07:02:57;;;;;;;;;;;;;;;12.86;59.06;95586.91;4215957;28;5770;-69
2023/03/14 07:05:00;;;;;;;;;;;;;;;12.85;59.11;95601.22;4215250;28;5605;-69
2023/03/14 07:07:03;;;;;;;;;;;;;;;12.87;58.77;95598.34;4220171;28;5625;-70
2023/03/14 07:09:07;;;;;;;;;;;;;;;12.86;59.06;95605.47;4219905;28;5628;-69
2023/03/14 07:11:11;;;;;;;;;;;;;;;12.86;59.13;95607.34;4212329;28;6323;-69
2023/03/14 07:13:13;;;;;;;;;;;;;;;12.87;58.96;95611.59;4208891;28;6508;-69
2023/03/14 07:15:16;;;;;;;;;;;;;;;12.85;59.21;95617.13;4219115;28;5711;-68
2023/03/14 07:17:21;;;;;;;;;;;;;;;12.91;59.29;95620.69;4219180;28;6425;-69
2023/03/14 07:19:24;;;;;;;;;;;;;;;12.90;58.92;95619.06;4218172;28;5857;-68
2023/03/14 07:21:27;;;;;;;;;;;;;;;12.94;58.98;95631.66;4219061;28;5099;-68
2023/03/14 07:23:30;;;;;;;;;;;;;;;12.96;59.05;95634.06;4218692;28;5621;-69
2023/03/14 07:25:35;;;;;;;;;;;;;;;12.89;59.17;95634.19;4211443;28;5613;-69
2023/03/14 07:27:37;;;;;;;;;;;;;;;12.89;59.01;95634.19;4219568;28;5620;-69
2023/03/14 07:29:40;;;;;;;;;;;;;;;12.86;59.15;95637.31;4219627;28;5716;-68
2023/03/14 07:31:43;;;;;;;;;;;;;;;12.90;59.21;95648.25;4219214;28;5683;-69
2023/03/14 07:33:47;;;;;;;;;;;;;;;12.87;59.31;95640.78;4219663;28;5749;-69
2023/03/14 07:35:50;;;;;;;;;;;;;;;12.81;59.30;95647.84;4219699;28;5617;-70
2023/03/14 07:37:53;;;;;;;;;;;;;;;12.80;59.46;95647.03;4217336;28;5688;-69
2023/03/14 07:39:56;;;;;;;;;;;;;;;12.76;59.68;95650.38;4216951;28;5649;-69
2023/03/14 07:42:01;;;;;;;;;;;;;;;12.77;59.53;95658.09;4211374;28;5648;-70
2023/03/14 07:44:04;;;;;;;;;;;;;;;12.77;59.40;95652.78;4214984;28;5613;-69
2023/03/14 07:46:07;;;;;;;;;;;;;;;12.80;59.38;95656.84;4217890;28;5766;-69
2023/03/14 07:48:10;;;;;;;;;;;;;;;12.81;59.47;95653.13;4215481;28;5632;-69
2023/03/14 07:50:13;;;;;;;;;;;;;;;12.82;59.47;95655.56;4216558;28;5829;-69
2023/03/14 07:52:17;;;;;;;;;;;;;;;12.79;59.41;95665.81;4216859;28;5112;-69
2023/03/14 07:54:20;;;;;;;;;;;;;;;12.77;59.80;95667.88;4217313;28;6331;-69
2023/03/14 07:56:23;;;;;;;;;;;;;;;12.79;59.79;95663.94;4218797;28;5711;-69
2023/03/14 07:58:27;;;;;;;;;;;;;;;12.82;59.77;95666.16;4218413;28;5839;-69
2023/03/14 08:00:30;;;;;;;;;;;;;;;12.89;59.40;95670.50;4218784;28;5857;-70
2023/03/14 08:02:33;;;;;;;;;;;;;;;12.88;59.64;95666.25;4210184;28;5671;-70
2023/03/14 08:04:36;;;;;;;;;;;;;;;12.81;59.83;95667.19;4217451;28;5617;-70
2023/03/14 08:06:39;;;;;;;;;;;;;;;12.74;59.82;95674.47;4218320;28;5617;-70
2023/03/14 08:08:42;;;;;;;;;;;;;;;12.76;59.70;95685.66;4218716;28;5621;-69
2023/03/14 08:10:46;;;;;;;;;;;;;;;12.75;59.70;95676.09;4218698;28;5632;-68
2023/03/14 08:12:49;;;;;;;;;;;;;;;12.81;59.67;95684.97;4218467;28;5624;-68
2023/03/14 08:14:53;;;;;;;;;;;;;;;12.78;59.63;95686.22;4218751;28;6504;-70
2023/03/14 08:16:56;;;;;;;;;;;;;;;12.74;59.79;95690.38;4218421;28;5629;-69
2023/03/14 08:18:59;;;;;;;;;;;;;;;12.78;59.91;95690.72;4218339;28;5609;-68
2023/03/14 08:21:02;;;;;;;;;;;;;;;12.79;59.95;95693.13;4218557;28;5696;-69
2023/03/14 08:23:05;;;;;;;;;;;;;;;12.79;59.61;95693.13;4218003;28;5625;-70
2023/03/14 08:25:08;;;;;;;;;;;;;;;12.79;59.95;95685.16;4217881;28;5624;-69
2023/03/14 08:27:11;;;;;;;;;;;;;;;12.78;59.91;95688.06;4218336;28;5689;-69
2023/03/14 08:29:14;;;;;;;;;;;;;;;12.72;59.79;95691.66;4218176;28;5617;-70
2023/03/14 08:31:18;;;;;;;;;;;;;;;12.71;59.83;95695.34;4218285;28;5704;-69
2023/03/14 08:33:21;;;;;;;;;;;;;;;12.74;59.86;95692.22;4217892;28;5708;-69
2023/03/14 08:35:25;;;;;;;;;;;;;;;12.71;59.98;95696.16;4218241;28;5661;-69
2023/03/14 08:37:27;;;;;;;;;;;;;;;12.67;59.78;95704.78;4218195;28;5700;-68
2023/03/14 08:39:30;;;;;;;;;;;;;;;12.67;60.07;95697.66;4218436;28;5630;-69
2023/03/14 08:41:34;;;;;;;;;;;;;;;12.70;59.67;95710.47;4218098;28;5873;-69
2023/03/14 08:43:37;;;;;;;;;;;;;;;12.68;59.93;95709.06;4218089;28;5679;-70
2023/03/14 08:45:42;;;;;;;;;;;;;;;12.64;59.87;95716.69;4217871;28;5700;-69
2023/03/14 08:47:47;;;;;;;;;;;;;;;12.66;60.04;95714.59;4217790;28;5712;-69
2023/03/14 08:49:50;;;;;;;;;;;;;;;12.64;59.55;95721.97;4218186;28;5691;-69
2023/03/14 08:51:53;;;;;;;;;;;;;;;12.61;59.68;95722.44;4218337;28;5621;-70
2023/03/14 08:53:56;;;;;;;;;;;;;;;12.59;60.02;95729.84;4217860;28;5624;-70
2023/03/14 08:55:59;;;;;;;;;;;;;;;12.55;59.73;95731.31;4218114;28;5181;-69
2023/03/14 08:58:02;;;;;;;;;;;;;;;12.52;60.05;95750.34;4217984;28;8401;-68
2023/03/14 09:00:10;;;;;;;;;;;;;;;12.50;59.83;95744.47;4217046;28;5616;-68
2023/03/14 09:02:13;;;;;;;;;;;;;;;12.53;59.93;95759.91;4217491;28;5714;-69
2023/03/14 09:04:17;;;;;;;;;;;;;;;12.50;59.82;95758.53;4214562;28;5767;-69
2023/03/14 09:06:20;;;;;;;;;;;;;;;12.49;59.89;95753.47;4216140;28;5763;-69
2023/03/14 09:08:23;;;;;;;;;;;;;;;12.50;59.83;95768.31;4218367;28;5661;-69
2023/03/14 09:10:26;;;;;;;;;;;;;;;12.46;60.18;95767.19;4205231;28;5635;-70
2023/03/14 09:12:31;;;;;;;;;;;;;;;12.47;60.15;95779.41;4208234;28;5617;-69
2023/03/14 09:14:34;;;;;;;;;;;;;;;12.45;60.00;95781.44;4217517;28;5776;-68
2023/03/14 09:16:37;;;;;;;;;;;;;;;12.43;60.20;95791.47;4204580;28;5782;-69
2023/03/14 09:18:40;;;;;;;;;;;;;;;12.43;60.39;95794.94;4201322;28;5807;-69
2023/03/14 09:20:47;;;;;;;;;;;;;;;12.45;60.17;95797.34;4201293;28;5636;-69
2023/03/14 09:22:50;;;;;;;;;;;;;;;12.46;60.44;95806.94;4203745;28;5643;-68
2023/03/14 09:24:53;;;;;;;;;;;;;;;12.49;60.24;95814.44;4216603;28;5866;-68
2023/03/14 09:26:56;;;;;;;;;;;;;;;12.52;60.17;95809.47;4213203;28;5605;-69
2023/03/14 09:28:59;;;;;;;;;;;;;;;12.60;60.10;95824.25;4217356;28;5613;-67
2023/03/14 09:31:07;;;;;;;;;;;;;;;12.66;60.29;95831.25;4211149;28;5635;-69
2023/03/14 09:33:10;;;;;;;;;;;;;;;12.67;60.33;95827.56;4214617;28;5613;-68
2023/03/14 09:35:13;;;;;;;;;;;;;;;12.68;60.06;95839.78;4212683;28;5700;-69
2023/03/14 09:37:17;;;;;;;;;;;;;;;12.64;60.15;95838.66;4217908;28;5609;-70
2023/03/14 09:39:20;;;;;;;;;;;;;;;12.62;60.20;95851.34;4217926;28;5827;-69
2023/03/14 09:41:27;;;;;;;;;;;;;;;12.63;60.07;95858.25;4217462;28;5863;-70
2023/03/14 09:43:35;;;;;;;;;;;;;;;12.62;60.42;95867.25;4216532;28;5620;-70
2023/03/14 09:45:42;;;;;;;;;;;;;;;12.62;60.43;95871.75;4210024;28;5754;-70
2023/03/14 09:47:47;;;;;;;;;;;;;;;12.63;60.18;95878.66;4217601;28;5707;-69
2023/03/14 09:50:03;;;;;;;;;;;;;;;12.62;60.43;95880.50;4217681;28;5617;-70
2023/03/14 09:52:12;;;;;;;;;;;;;;;12.59;60.48;95886.25;4217306;28;5609;-69
2023/03/14 09:54:30;;;;;;;;;;;;;;;12.58;60.38;95895.25;4217715;28;5719;-69
2023/03/14 09:56:34;;;;;;;;;;;;;;;12.55;60.51;95895.69;4201743;28;5647;-69
2023/03/14 09:58:41;;;;;;;;;;;;;;;12.53;60.24;95900.41;4217090;28;6338;-69
2023/03/14 10:00:44;;;;;;;;;;;;;;;12.47;60.28;95904.00;4212560;28;5639;-69
2023/03/14 10:02:52;;;;;;;;;;;;;;;12.42;60.45;95901.19;4214607;28;5816;-69
2023/03/14 10:04:55;;;;;;;;;;;;;;;12.38;60.54;95897.38;4215514;28;6450;-69
2023/03/14 10:06:58;;;;;;;;;;;;;;;12.39;60.62;95907.75;4216776;28;5696;-69
2023/03/14 10:09:02;;;;;;;;;;;;;;;12.42;60.62;95901.19;4216934;28;5613;-69
2023/03/14 10:11:07;;;;;;;;;;;;;;;12.47;60.21;95912.75;4216824;28;5620;-70
2023/03/14 10:13:16;;;;;;;;;;;;;;;12.50;60.13;95908.81;4217340;28;5095;-69
2023/03/14 10:15:25;;;;;;;;;;;;;;;12.42;60.14;95922.41;4216204;28;8397;-69
2023/03/14 10:17:30;;;;;;;;;;;;;;;12.30;60.24;95911.75;4216940;28;5624;-69
2023/03/14 10:19:33;;;;;;;;;;;;;;;12.17;60.64;95907.44;4200935;28;5635;-69
2023/03/14 10:21:40;;;;;;;;;;;;;;;12.09;60.77;95915.69;4209454;28;5613;-70
2023/03/14 10:23:43;;;;;;;;;;;;;;;12.06;60.76;95920.66;4212605;28;6460;-70
2023/03/14 10:26:00;;;;;;;;;;;;;;;12.07;60.78;95912.47;4214257;28;5614;-70
2023/03/14 10:28:06;;;;;;;;;;;;;;;12.17;60.52;95928.63;4212647;28;5625;-69
2023/03/14 10:30:43;;;;;;;;;;;;;;;12.17;60.45;95928.63;4216029;28;5616;-69
2023/03/14 10:32:47;;;;;;;;;;;;;;;12.15;60.60;95936.00;4210789;28;5676;-68
2023/03/14 10:35:07;;;;;;;;;;;;;;;12.11;60.47;95942.78;4208838;28;6424;-68
2023/03/14 10:37:22;;;;;;;;;;;;;;;12.10;60.66;95954.41;4217025;28;5664;-69
2023/03/14 10:39:29;;;;;;;;;;;;;;;12.14;60.69;95960.88;4216884;28;5613;-69
2023/03/14 10:41:34;;;;;;;;;;;;;;;12.16;60.32;95965.97;4216930;28;5597;-70
2023/03/14 10:43:38;;;;;;;;;;;;;;;12.18;60.43;95964.69;4208678;28;5612;-68
2023/03/14 10:45:43;;;;;;;;;;;;;;;12.25;60.31;95967.28;4216699;28;5628;-69
2023/03/14 10:47:49;;;;;;;;;;;;;;;12.26;60.10;95981.34;4214417;28;5703;-69
2023/03/14 10:49:52;;;;;;;;;;;;;;;12.27;59.91;95986.41;4217422;28;5721;-69
2023/03/14 10:51:55;;;;;;;;;;;;;;;12.36;59.89;95976.31;4216500;28;5620;-69
2023/03/14 10:54:00;;;;;;;;;;;;;;;12.43;59.56;95992.94;4214806;28;5621;-68
2023/03/14 10:56:04;;;;;;;;;;;;;;;12.42;59.77;95994.78;4200232;28;5234;-70